This is the latest recevied weather packets stored in our database for station/object KG6QHD-13. If no packets are shown the sender has not sent any weather packets the latest 10 day(s).
| Time | Temp. | Humidity | Pressure | Rain* | Wind** | Luminosity | Snow |
|---|---|---|---|---|---|---|---|
| 1778152555 | 2.22° C | 48% | 1019.8 hPa | 0 mm | - | 0 W/m² | - |
| 1778150148 | 2.22° C | 46% | 1019.7 hPa | 0 mm | - | 0 W/m² | - |
| 1778149547 | 2.22° C | 46% | 1019.6 hPa | 0 mm | - | 0 W/m² | - |
| 1778148057 | 2.22° C | 45% | 1020 hPa | 0 mm | - | 0 W/m² | - |
| 1778147748 | 2.22° C | 45% | 1020 hPa | 0 mm | - | 0 W/m² | - |
| 1778147447 | 2.78° C | 44% | 1019.9 hPa | 0 mm | - | 0 W/m² | - |
| 1778146847 | 2.78° C | 43% | 1019.8 hPa | 0 mm | - | 0 W/m² | - |
| 1778143252 | 2.22° C | 47% | 1020.3 hPa | 0 mm | - | 0 W/m² | - |
| 1778142653 | 2.22° C | 47% | 1020.2 hPa | 0 mm | - | 0 W/m² | - |
| 1778142348 | 2.22° C | 47% | 1020.3 hPa | 0 mm | - | 0 W/m² | - |
| 1778141447 | 1.67° C | 51% | 1020.4 hPa | 0 mm | - | 0 W/m² | - |
| 1778139958 | 1.67° C | 51% | 1020.4 hPa | 0 mm | - | 0 W/m² | - |
| 1778139682 | 1.67° C | 52% | 1020.3 hPa | 0 mm | - | 0 W/m² | - |
| 1778136352 | 0.56° C | 63% | 1020.7 hPa | 0 mm | - | 0 W/m² | - |
| 1778135748 | 0.56° C | 67% | 1021 hPa | 0 mm | - | 0 W/m² | - |
| 1778133950 | -2.22° C | 88% | 1020.8 hPa | 0 mm | - | 0 W/m² | - |
| 1778132447 | -3.33° C | 89% | 1020.7 hPa | 0 mm | - | 0 W/m² | - |
| 1778132148 | -3.33° C | 89% | 1020.7 hPa | 0 mm | - | 0 W/m² | - |
| 1778131547 | -3.33° C | 89% | 1020.5 hPa | 0 mm | - | 0 W/m² | - |
| 1778130950 | -3.33° C | 89% | 1020.5 hPa | 0 mm | - | 0 W/m² | - |
| 1778130348 | -3.33° C | 89% | 1020.4 hPa | 0 mm | - | 0 W/m² | - |
| 1778129448 | -3.33° C | 89% | 1020.3 hPa | 0 mm | - | 0 W/m² | - |
| 1778128847 | -3.33° C | 88% | 1020.5 hPa | 0 mm | - | 0 W/m² | - |
| 1778127052 | -2.78° C | 87% | 1020.6 hPa | 0 mm | - | 0 W/m² | - |
| 1778125849 | -2.78° C | 87% | 1020.4 hPa | 0 mm | - | 0 W/m² | - |
* Rain latest hour (hover to see other rain measurements)
** Current wind speed in m/s (hover to see current wind gust speed)